sensor_id;sensor_type;location;lat;lon;timestamp;temperature;humidity
58638;DHT22;54976;51.510;7.522;2023-03-20T00:02:39;11.20;99.90
58638;DHT22;54976;51.510;7.522;2023-03-20T00:05:40;11.20;99.90
58638;DHT22;54976;51.510;7.522;2023-03-20T00:08:40;11.30;99.90
58638;DHT22;54976;51.510;7.522;2023-03-20T00:11:50;11.20;99.90
58638;DHT22;54976;51.510;7.522;2023-03-20T00:14:51;11.10;99.90
58638;DHT22;54976;51.510;7.522;2023-03-20T00:17:52;11.00;99.90
58638;DHT22;54976;51.510;7.522;2023-03-20T00:20:53;11.00;99.90
58638;DHT22;54976;51.510;7.522;2023-03-20T00:23:54;10.90;99.90
58638;DHT22;54976;51.510;7.522;2023-03-20T00:26:54;10.90;99.80
58638;DHT22;54976;51.510;7.522;2023-03-20T00:29:55;10.80;99.90
58638;DHT22;54976;51.510;7.522;2023-03-20T00:32:56;10.80;99.90
58638;DHT22;54976;51.510;7.522;2023-03-20T00:35:57;10.70;99.90
58638;DHT22;54976;51.510;7.522;2023-03-20T00:38:58;10.70;99.90
58638;DHT22;54976;51.510;7.522;2023-03-20T00:42:03;10.70;99.90
58638;DHT22;54976;51.510;7.522;2023-03-20T00:45:05;10.70;99.90
58638;DHT22;54976;51.510;7.522;2023-03-20T00:48:10;10.70;99.90
58638;DHT22;54976;51.510;7.522;2023-03-20T00:51:12;10.70;99.90
58638;DHT22;54976;51.510;7.522;2023-03-20T00:54:13;10.60;99.80
58638;DHT22;54976;51.510;7.522;2023-03-20T01:03:31;10.60;99.90
58638;DHT22;54976;51.510;7.522;2023-03-20T01:06:31;10.60;99.90
58638;DHT22;54976;51.510;7.522;2023-03-20T01:09:32;10.50;99.90
58638;DHT22;54976;51.510;7.522;2023-03-20T01:12:33;10.40;99.70
58638;DHT22;54976;51.510;7.522;2023-03-20T01:15:33;10.30;99.90
58638;DHT22;54976;51.510;7.522;2023-03-20T01:18:35;10.30;99.90
58638;DHT22;54976;51.510;7.522;2023-03-20T01:21:36;10.20;99.90
58638;DHT22;54976;51.510;7.522;2023-03-20T01:24:36;10.30;99.90
58638;DHT22;54976;51.510;7.522;2023-03-20T01:27:37;10.20;99.90
58638;DHT22;54976;51.510;7.522;2023-03-20T01:30:38;10.10;99.90
58638;DHT22;54976;51.510;7.522;2023-03-20T01:33:38;10.00;99.90
58638;DHT22;54976;51.510;7.522;2023-03-20T01:36:39;10.00;99.90
58638;DHT22;54976;51.510;7.522;2023-03-20T01:39:39;10.00;99.90
58638;DHT22;54976;51.510;7.522;2023-03-20T01:42:40;10.00;99.90
58638;DHT22;54976;51.510;7.522;2023-03-20T01:45:46;10.00;99.90
58638;DHT22;54976;51.510;7.522;2023-03-20T01:51:49;10.00;99.90
58638;DHT22;54976;51.510;7.522;2023-03-20T01:54:50;9.90;99.90
58638;DHT22;54976;51.510;7.522;2023-03-20T01:57:50;10.00;99.90
58638;DHT22;54976;51.510;7.522;2023-03-20T02:00:52;9.90;99.90
58638;DHT22;54976;51.510;7.522;2023-03-20T02:03:53;10.00;99.90
58638;DHT22;54976;51.510;7.522;2023-03-20T02:06:55;10.00;99.90
58638;DHT22;54976;51.510;7.522;2023-03-20T02:09:55;9.90;99.90
58638;DHT22;54976;51.510;7.522;2023-03-20T02:12:56;9.90;99.90
58638;DHT22;54976;51.510;7.522;2023-03-20T02:16:09;9.90;99.90
58638;DHT22;54976;51.510;7.522;2023-03-20T02:19:13;9.80;99.90
58638;DHT22;54976;51.510;7.522;2023-03-20T02:35:29;9.90;99.90
58638;DHT22;54976;51.510;7.522;2023-03-20T02:57:09;9.80;99.90
58638;DHT22;54976;51.510;7.522;2023-03-20T03:00:21;9.70;99.90
58638;DHT22;54976;51.510;7.522;2023-03-20T03:03:24;9.60;99.90
58638;DHT22;54976;51.510;7.522;2023-03-20T03:06:29;9.70;99.90
58638;DHT22;54976;51.510;7.522;2023-03-20T03:09:30;9.60;99.90
58638;DHT22;54976;51.510;7.522;2023-03-20T03:12:40;9.60;99.90
58638;DHT22;54976;51.510;7.522;2023-03-20T03:15:43;9.60;99.90
58638;DHT22;54976;51.510;7.522;2023-03-20T03:18:45;9.60;99.90
58638;DHT22;54976;51.510;7.522;2023-03-20T03:21:46;9.60;99.90
58638;DHT22;54976;51.510;7.522;2023-03-20T03:24:48;9.60;99.90
58638;DHT22;54976;51.510;7.522;2023-03-20T03:27:51;9.50;99.90
58638;DHT22;54976;51.510;7.522;2023-03-20T03:30:53;9.60;99.70
58638;DHT22;54976;51.510;7.522;2023-03-20T03:33:56;9.80;98.80
58638;DHT22;54976;51.510;7.522;2023-03-20T03:40:03;9.50;98.80
58638;DHT22;54976;51.510;7.522;2023-03-20T03:46:12;9.40;98.00
58638;DHT22;54976;51.510;7.522;2023-03-20T03:49:20;9.40;97.70
58638;DHT22;54976;51.510;7.522;2023-03-20T03:52:22;9.30;98.10
58638;DHT22;54976;51.510;7.522;2023-03-20T03:55:31;9.20;98.20
58638;DHT22;54976;51.510;7.522;2023-03-20T04:01:42;9.20;98.20
58638;DHT22;54976;51.510;7.522;2023-03-20T04:04:44;9.10;98.30
58638;DHT22;54976;51.510;7.522;2023-03-20T04:07:46;9.00;98.60
58638;DHT22;54976;51.510;7.522;2023-03-20T04:10:47;9.00;98.10
58638;DHT22;54976;51.510;7.522;2023-03-20T04:13:48;9.10;97.90
58638;DHT22;54976;51.510;7.522;2023-03-20T04:16:49;9.00;97.70
58638;DHT22;54976;51.510;7.522;2023-03-20T04:19:50;9.00;98.30
58638;DHT22;54976;51.510;7.522;2023-03-20T04:22:50;9.00;98.20
58638;DHT22;54976;51.510;7.522;2023-03-20T04:25:51;8.90;98.40
58638;DHT22;54976;51.510;7.522;2023-03-20T04:28:51;8.90;98.60
58638;DHT22;54976;51.510;7.522;2023-03-20T04:31:52;8.90;98.60
58638;DHT22;54976;51.510;7.522;2023-03-20T04:34:52;8.90;98.90
58638;DHT22;54976;51.510;7.522;2023-03-20T04:37:53;8.90;99.10
58638;DHT22;54976;51.510;7.522;2023-03-20T04:40:53;8.90;99.20
58638;DHT22;54976;51.510;7.522;2023-03-20T04:43:54;9.00;99.20
58638;DHT22;54976;51.510;7.522;2023-03-20T04:46:54;9.00;99.30
58638;DHT22;54976;51.510;7.522;2023-03-20T04:49:55;8.90;99.50
58638;DHT22;54976;51.510;7.522;2023-03-20T04:52:56;9.00;99.10
58638;DHT22;54976;51.510;7.522;2023-03-20T04:55:56;9.10;99.30
58638;DHT22;54976;51.510;7.522;2023-03-20T04:58:56;8.90;99.40
58638;DHT22;54976;51.510;7.522;2023-03-20T05:01:57;8.90;99.60
58638;DHT22;54976;51.510;7.522;2023-03-20T05:04:57;8.90;99.50
58638;DHT22;54976;51.510;7.522;2023-03-20T05:07:58;8.90;99.30
58638;DHT22;54976;51.510;7.522;2023-03-20T05:10:58;8.80;99.90
58638;DHT22;54976;51.510;7.522;2023-03-20T05:13:59;8.70;99.90
58638;DHT22;54976;51.510;7.522;2023-03-20T05:16:59;8.80;99.90
58638;DHT22;54976;51.510;7.522;2023-03-20T05:20:00;8.70;99.90
58638;DHT22;54976;51.510;7.522;2023-03-20T05:23:01;8.60;99.90
58638;DHT22;54976;51.510;7.522;2023-03-20T05:26:02;8.70;99.90
58638;DHT22;54976;51.510;7.522;2023-03-20T05:29:02;8.60;99.90
58638;DHT22;54976;51.510;7.522;2023-03-20T05:32:03;8.60;99.90
58638;DHT22;54976;51.510;7.522;2023-03-20T05:35:04;8.60;99.90
58638;DHT22;54976;51.510;7.522;2023-03-20T05:38:04;8.60;99.90
58638;DHT22;54976;51.510;7.522;2023-03-20T05:41:05;8.70;99.90
58638;DHT22;54976;51.510;7.522;2023-03-20T05:44:05;8.70;99.90
58638;DHT22;54976;51.510;7.522;2023-03-20T05:47:06;8.80;99.70
58638;DHT22;54976;51.510;7.522;2023-03-20T05:50:06;8.80;99.50
58638;DHT22;54976;51.510;7.522;2023-03-20T05:53:07;8.70;99.40
58638;DHT22;54976;51.510;7.522;2023-03-20T05:56:08;8.70;99.60
58638;DHT22;54976;51.510;7.522;2023-03-20T05:59:09;8.70;99.60
58638;DHT22;54976;51.510;7.522;2023-03-20T06:02:10;8.70;99.50
58638;DHT22;54976;51.510;7.522;2023-03-20T06:05:11;8.70;99.30
58638;DHT22;54976;51.510;7.522;2023-03-20T06:08:12;8.70;99.20
58638;DHT22;54976;51.510;7.522;2023-03-20T06:11:12;8.70;99.40
58638;DHT22;54976;51.510;7.522;2023-03-20T06:14:13;8.70;99.40
58638;DHT22;54976;51.510;7.522;2023-03-20T06:17:13;8.70;99.80
58638;DHT22;54976;51.510;7.522;2023-03-20T06:20:14;8.60;99.60
58638;DHT22;54976;51.510;7.522;2023-03-20T06:23:14;8.70;99.80
58638;DHT22;54976;51.510;7.522;2023-03-20T06:26:15;8.60;99.90
58638;DHT22;54976;51.510;7.522;2023-03-20T06:29:15;8.70;99.90
58638;DHT22;54976;51.510;7.522;2023-03-20T06:32:16;8.70;99.90
58638;DHT22;54976;51.510;7.522;2023-03-20T06:35:16;8.80;99.80
58638;DHT22;54976;51.510;7.522;2023-03-20T06:38:17;8.90;99.40
58638;DHT22;54976;51.510;7.522;2023-03-20T06:41:18;8.80;99.20
58638;DHT22;54976;51.510;7.522;2023-03-20T06:44:18;8.90;99.30
58638;DHT22;54976;51.510;7.522;2023-03-20T06:47:19;8.90;99.10
58638;DHT22;54976;51.510;7.522;2023-03-20T06:50:20;8.90;99.40
58638;DHT22;54976;51.510;7.522;2023-03-20T06:53:20;8.90;99.10
58638;DHT22;54976;51.510;7.522;2023-03-20T06:56:21;9.00;99.20
58638;DHT22;54976;51.510;7.522;2023-03-20T06:59:22;9.00;99.00
58638;DHT22;54976;51.510;7.522;2023-03-20T07:02:24;9.00;98.60
58638;DHT22;54976;51.510;7.522;2023-03-20T07:05:25;9.00;98.80
58638;DHT22;54976;51.510;7.522;2023-03-20T07:08:26;9.00;98.50
58638;DHT22;54976;51.510;7.522;2023-03-20T07:11:26;9.10;98.00
58638;DHT22;54976;51.510;7.522;2023-03-20T07:14:27;9.10;98.00
58638;DHT22;54976;51.510;7.522;2023-03-20T07:17:28;9.20;97.60
58638;DHT22;54976;51.510;7.522;2023-03-20T07:20:28;9.20;97.80
58638;DHT22;54976;51.510;7.522;2023-03-20T07:23:29;9.20;98.10
58638;DHT22;54976;51.510;7.522;2023-03-20T07:26:30;9.30;97.40
58638;DHT22;54976;51.510;7.522;2023-03-20T07:29:31;9.40;96.70
58638;DHT22;54976;51.510;7.522;2023-03-20T07:32:31;9.60;96.10
58638;DHT22;54976;51.510;7.522;2023-03-20T07:35:32;9.70;96.30
58638;DHT22;54976;51.510;7.522;2023-03-20T07:38:33;9.70;95.60
58638;DHT22;54976;51.510;7.522;2023-03-20T07:41:33;9.80;94.80
58638;DHT22;54976;51.510;7.522;2023-03-20T07:44:35;9.70;95.60
58638;DHT22;54976;51.510;7.522;2023-03-20T07:47:35;9.90;94.60
58638;DHT22;54976;51.510;7.522;2023-03-20T07:50:36;10.10;93.70
58638;DHT22;54976;51.510;7.522;2023-03-20T07:53:36;10.10;93.90
58638;DHT22;54976;51.510;7.522;2023-03-20T07:56:37;10.30;92.30
58638;DHT22;54976;51.510;7.522;2023-03-20T07:59:37;10.30;91.90
58638;DHT22;54976;51.510;7.522;2023-03-20T08:02:38;10.30;92.30
58638;DHT22;54976;51.510;7.522;2023-03-20T08:05:38;10.50;91.90
58638;DHT22;54976;51.510;7.522;2023-03-20T08:08:39;10.60;91.40
58638;DHT22;54976;51.510;7.522;2023-03-20T08:11:40;11.10;90.20
58638;DHT22;54976;51.510;7.522;2023-03-20T08:14:40;11.30;86.40
58638;DHT22;54976;51.510;7.522;2023-03-20T08:17:43;11.30;85.10
58638;DHT22;54976;51.510;7.522;2023-03-20T08:20:44;11.20;84.10
58638;DHT22;54976;51.510;7.522;2023-03-20T08:23:45;11.20;83.60
58638;DHT22;54976;51.510;7.522;2023-03-20T08:26:45;11.20;83.50
58638;DHT22;54976;51.510;7.522;2023-03-20T08:29:46;11.10;81.70
58638;DHT22;54976;51.510;7.522;2023-03-20T08:32:46;11.10;80.90
58638;DHT22;54976;51.510;7.522;2023-03-20T08:35:54;11.00;82.00
58638;DHT22;54976;51.510;7.522;2023-03-20T08:38:55;11.10;82.70
58638;DHT22;54976;51.510;7.522;2023-03-20T08:41:55;11.20;81.90
58638;DHT22;54976;51.510;7.522;2023-03-20T08:44:55;11.30;80.80
58638;DHT22;54976;51.510;7.522;2023-03-20T08:47:56;11.40;79.20
58638;DHT22;54976;51.510;7.522;2023-03-20T08:50:56;11.40;79.30
58638;DHT22;54976;51.510;7.522;2023-03-20T08:53:57;11.40;77.20
58638;DHT22;54976;51.510;7.522;2023-03-20T08:56:57;11.40;77.20
58638;DHT22;54976;51.510;7.522;2023-03-20T08:59:58;11.50;78.00
58638;DHT22;54976;51.510;7.522;2023-03-20T09:02:58;11.50;77.40
58638;DHT22;54976;51.510;7.522;2023-03-20T09:05:59;11.50;76.50
58638;DHT22;54976;51.510;7.522;2023-03-20T09:09:00;11.50;76.10
58638;DHT22;54976;51.510;7.522;2023-03-20T09:12:00;11.50;76.00
58638;DHT22;54976;51.510;7.522;2023-03-20T09:15:03;11.50;76.10
58638;DHT22;54976;51.510;7.522;2023-03-20T09:18:03;11.60;74.40
58638;DHT22;54976;51.510;7.522;2023-03-20T09:21:04;11.50;74.20
58638;DHT22;54976;51.510;7.522;2023-03-20T09:24:05;11.70;74.50
58638;DHT22;54976;51.510;7.522;2023-03-20T09:27:06;11.80;72.80
58638;DHT22;54976;51.510;7.522;2023-03-20T09:30:06;11.80;72.80
58638;DHT22;54976;51.510;7.522;2023-03-20T09:33:07;11.70;72.90
58638;DHT22;54976;51.510;7.522;2023-03-20T09:36:08;11.60;70.90
58638;DHT22;54976;51.510;7.522;2023-03-20T09:39:10;11.60;69.90
58638;DHT22;54976;51.510;7.522;2023-03-20T09:48:45;11.40;69.70
58638;DHT22;54976;51.510;7.522;2023-03-20T09:51:57;11.50;69.80
58638;DHT22;54976;51.510;7.522;2023-03-20T09:55:00;11.60;68.70
58638;DHT22;54976;51.510;7.522;2023-03-20T10:04:47;11.50;65.60
58638;DHT22;54976;51.510;7.522;2023-03-20T10:07:48;11.50;65.10
58638;DHT22;54976;51.510;7.522;2023-03-20T10:11:01;11.60;65.40
58638;DHT22;54976;51.510;7.522;2023-03-20T10:14:06;11.70;65.10
58638;DHT22;54976;51.510;7.522;2023-03-20T10:20:10;12.00;63.40
58638;DHT22;54976;51.510;7.522;2023-03-20T10:26:14;11.90;63.40
58638;DHT22;54976;51.510;7.522;2023-03-20T10:29:20;12.00;65.80
58638;DHT22;54976;51.510;7.522;2023-03-20T10:35:49;12.30;61.90
58638;DHT22;54976;51.510;7.522;2023-03-20T10:38:53;12.10;60.60
58638;DHT22;54976;51.510;7.522;2023-03-20T10:41:57;12.10;59.60
58638;DHT22;54976;51.510;7.522;2023-03-20T10:45:01;12.00;59.80
58638;DHT22;54976;51.510;7.522;2023-03-20T10:48:06;12.00;59.50
58638;DHT22;54976;51.510;7.522;2023-03-20T10:51:16;11.90;60.00
58638;DHT22;54976;51.510;7.522;2023-03-20T10:54:21;12.00;60.80
58638;DHT22;54976;51.510;7.522;2023-03-20T10:57:24;12.20;59.70
58638;DHT22;54976;51.510;7.522;2023-03-20T11:00:25;12.40;59.80
58638;DHT22;54976;51.510;7.522;2023-03-20T11:03:27;12.60;58.50
58638;DHT22;54976;51.510;7.522;2023-03-20T11:06:32;12.50;58.10
58638;DHT22;54976;51.510;7.522;2023-03-20T11:09:33;12.30;57.50
58638;DHT22;54976;51.510;7.522;2023-03-20T11:12:36;12.20;58.40
58638;DHT22;54976;51.510;7.522;2023-03-20T11:15:37;12.00;59.00
58638;DHT22;54976;51.510;7.522;2023-03-20T11:18:39;11.90;59.10
58638;DHT22;54976;51.510;7.522;2023-03-20T11:21:59;11.80;59.10
58638;DHT22;54976;51.510;7.522;2023-03-20T11:25:00;11.70;60.00
58638;DHT22;54976;51.510;7.522;2023-03-20T11:28:22;11.80;59.40
58638;DHT22;54976;51.510;7.522;2023-03-20T11:31:37;11.80;59.70
58638;DHT22;54976;51.510;7.522;2023-03-20T11:34:39;12.00;60.40
58638;DHT22;54976;51.510;7.522;2023-03-20T11:37:43;12.20;58.60
58638;DHT22;54976;51.510;7.522;2023-03-20T11:40:44;12.40;58.40
58638;DHT22;54976;51.510;7.522;2023-03-20T11:43:47;12.50;58.40
58638;DHT22;54976;51.510;7.522;2023-03-20T11:46:58;12.70;57.30
58638;DHT22;54976;51.510;7.522;2023-03-20T11:50:00;12.80;57.60
58638;DHT22;54976;51.510;7.522;2023-03-20T11:53:02;12.90;56.50
58638;DHT22;54976;51.510;7.522;2023-03-20T11:56:10;13.00;55.10
58638;DHT22;54976;51.510;7.522;2023-03-20T11:59:12;13.10;55.00
58638;DHT22;54976;51.510;7.522;2023-03-20T12:02:18;13.00;55.20
58638;DHT22;54976;51.510;7.522;2023-03-20T12:05:35;13.10;54.20
58638;DHT22;54976;51.510;7.522;2023-03-20T12:08:36;13.30;52.50
58638;DHT22;54976;51.510;7.522;2023-03-20T12:15:27;12.90;53.50
58638;DHT22;54976;51.510;7.522;2023-03-20T12:21:38;12.90;53.60
58638;DHT22;54976;51.510;7.522;2023-03-20T12:24:45;12.90;53.00
58638;DHT22;54976;51.510;7.522;2023-03-20T12:27:52;12.90;53.10
58638;DHT22;54976;51.510;7.522;2023-03-20T12:30:57;12.90;52.80
58638;DHT22;54976;51.510;7.522;2023-03-20T12:37:10;12.70;52.90
58638;DHT22;54976;51.510;7.522;2023-03-20T12:40:16;12.70;53.70
58638;DHT22;54976;51.510;7.522;2023-03-20T12:43:24;12.70;54.30
58638;DHT22;54976;51.510;7.522;2023-03-20T12:46:31;12.60;54.60
58638;DHT22;54976;51.510;7.522;2023-03-20T12:50:22;12.60;55.40
58638;DHT22;54976;51.510;7.522;2023-03-20T12:53:03;12.40;56.70
58638;DHT22;54976;51.510;7.522;2023-03-20T12:56:10;12.10;58.30
58638;DHT22;54976;51.510;7.522;2023-03-20T12:59:15;12.10;58.60
58638;DHT22;54976;51.510;7.522;2023-03-20T13:05:23;11.70;59.00
58638;DHT22;54976;51.510;7.522;2023-03-20T13:21:00;11.60;60.90
58638;DHT22;54976;51.510;7.522;2023-03-20T13:24:26;11.60;62.30
58638;DHT22;54976;51.510;7.522;2023-03-20T13:27:32;11.60;62.20
58638;DHT22;54976;51.510;7.522;2023-03-20T13:30:39;11.40;63.00
58638;DHT22;54976;51.510;7.522;2023-03-20T13:33:49;11.30;63.90
58638;DHT22;54976;51.510;7.522;2023-03-20T13:37:04;11.30;63.60
58638;DHT22;54976;51.510;7.522;2023-03-20T13:40:25;11.30;65.10
58638;DHT22;54976;51.510;7.522;2023-03-20T13:46:31;11.30;63.50
58638;DHT22;54976;51.510;7.522;2023-03-20T13:49:53;11.30;63.40
58638;DHT22;54976;51.510;7.522;2023-03-20T13:53:02;11.30;62.70
58638;DHT22;54976;51.510;7.522;2023-03-20T13:56:17;11.30;63.90
58638;DHT22;54976;51.510;7.522;2023-03-20T14:02:56;11.30;64.80
58638;DHT22;54976;51.510;7.522;2023-03-20T14:06:49;11.30;66.50
58638;DHT22;54976;51.510;7.522;2023-03-20T14:09:25;11.40;67.00
58638;DHT22;54976;51.510;7.522;2023-03-20T14:12:26;11.40;66.90
58638;DHT22;54976;51.510;7.522;2023-03-20T14:15:32;11.30;67.20
58638;DHT22;54976;51.510;7.522;2023-03-20T14:18:33;11.10;66.70
58638;DHT22;54976;51.510;7.522;2023-03-20T14:21:34;11.00;67.80
58638;DHT22;54976;51.510;7.522;2023-03-20T14:24:35;11.10;69.00
58638;DHT22;54976;51.510;7.522;2023-03-20T14:27:56;11.10;69.60
58638;DHT22;54976;51.510;7.522;2023-03-20T14:31:11;11.20;67.60
58638;DHT22;54976;51.510;7.522;2023-03-20T14:40:28;11.20;65.60
58638;DHT22;54976;51.510;7.522;2023-03-20T14:53:02;11.10;70.70
58638;DHT22;54976;51.510;7.522;2023-03-20T14:56:12;11.30;70.90
58638;DHT22;54976;51.510;7.522;2023-03-20T14:59:14;11.40;70.80
58638;DHT22;54976;51.510;7.522;2023-03-20T15:02:49;11.50;67.20
58638;DHT22;54976;51.510;7.522;2023-03-20T15:05:43;11.60;66.30
58638;DHT22;54976;51.510;7.522;2023-03-20T15:08:46;11.50;68.50
58638;DHT22;54976;51.510;7.522;2023-03-20T15:11:49;11.90;67.80
58638;DHT22;54976;51.510;7.522;2023-03-20T15:14:57;12.00;69.20
58638;DHT22;54976;51.510;7.522;2023-03-20T15:18:09;12.00;67.30
58638;DHT22;54976;51.510;7.522;2023-03-20T15:21:18;11.60;69.60
58638;DHT22;54976;51.510;7.522;2023-03-20T15:24:20;11.50;69.60
58638;DHT22;54976;51.510;7.522;2023-03-20T15:27:21;11.40;71.40
58638;DHT22;54976;51.510;7.522;2023-03-20T15:30:22;11.30;69.70
58638;DHT22;54976;51.510;7.522;2023-03-20T15:33:27;11.10;71.60
58638;DHT22;54976;51.510;7.522;2023-03-20T15:36:29;11.10;73.40
58638;DHT22;54976;51.510;7.522;2023-03-20T15:39:40;11.00;75.30
58638;DHT22;54976;51.510;7.522;2023-03-20T15:42:41;11.00;77.80
58638;DHT22;54976;51.510;7.522;2023-03-20T15:45:42;11.00;76.90
58638;DHT22;54976;51.510;7.522;2023-03-20T15:48:46;10.90;78.60
58638;DHT22;54976;51.510;7.522;2023-03-20T15:51:47;10.70;82.20
58638;DHT22;54976;51.510;7.522;2023-03-20T15:54:48;10.70;82.40
58638;DHT22;54976;51.510;7.522;2023-03-20T15:57:49;10.40;82.30
58638;DHT22;54976;51.510;7.522;2023-03-20T16:00:51;10.40;83.60
58638;DHT22;54976;51.510;7.522;2023-03-20T16:03:52;10.50;87.80
58638;DHT22;54976;51.510;7.522;2023-03-20T16:06:57;10.50;85.60
58638;DHT22;54976;51.510;7.522;2023-03-20T16:09:59;10.50;84.10
58638;DHT22;54976;51.510;7.522;2023-03-20T16:13:00;10.50;85.00
58638;DHT22;54976;51.510;7.522;2023-03-20T16:16:01;10.40;88.20
58638;DHT22;54976;51.510;7.522;2023-03-20T16:19:03;10.40;90.40
58638;DHT22;54976;51.510;7.522;2023-03-20T16:22:10;10.50;91.50
58638;DHT22;54976;51.510;7.522;2023-03-20T16:25:15;10.50;92.40
58638;DHT22;54976;51.510;7.522;2023-03-20T16:28:16;10.50;91.00
58638;DHT22;54976;51.510;7.522;2023-03-20T16:31:19;10.40;91.40
58638;DHT22;54976;51.510;7.522;2023-03-20T16:34:21;10.40;92.10
58638;DHT22;54976;51.510;7.522;2023-03-20T16:43:30;10.30;93.00
58638;DHT22;54976;51.510;7.522;2023-03-20T16:46:31;10.30;92.50
58638;DHT22;54976;51.510;7.522;2023-03-20T16:49:47;10.30;94.00
58638;DHT22;54976;51.510;7.522;2023-03-20T16:52:49;10.30;93.40
58638;DHT22;54976;51.510;7.522;2023-03-20T16:55:50;10.30;93.80
58638;DHT22;54976;51.510;7.522;2023-03-20T16:58:51;10.30;94.10
58638;DHT22;54976;51.510;7.522;2023-03-20T17:01:52;10.30;94.10
58638;DHT22;54976;51.510;7.522;2023-03-20T17:05:02;10.30;94.70
58638;DHT22;54976;51.510;7.522;2023-03-20T17:08:03;10.20;94.90
58638;DHT22;54976;51.510;7.522;2023-03-20T17:14:40;10.10;94.90
58638;DHT22;54976;51.510;7.522;2023-03-20T17:17:41;10.00;94.60
58638;DHT22;54976;51.510;7.522;2023-03-20T17:20:41;10.10;94.30
58638;DHT22;54976;51.510;7.522;2023-03-20T17:23:42;10.10;93.70
58638;DHT22;54976;51.510;7.522;2023-03-20T17:26:44;10.10;94.70
58638;DHT22;54976;51.510;7.522;2023-03-20T17:29:46;10.10;95.10
58638;DHT22;54976;51.510;7.522;2023-03-20T17:32:48;9.90;96.00
58638;DHT22;54976;51.510;7.522;2023-03-20T17:35:49;10.00;95.10
58638;DHT22;54976;51.510;7.522;2023-03-20T17:38:49;10.00;94.80
58638;DHT22;54976;51.510;7.522;2023-03-20T17:41:50;10.00;94.60
58638;DHT22;54976;51.510;7.522;2023-03-20T17:44:51;10.10;94.80
58638;DHT22;54976;51.510;7.522;2023-03-20T17:47:51;10.00;94.00
58638;DHT22;54976;51.510;7.522;2023-03-20T17:50:53;10.00;94.00
58638;DHT22;54976;51.510;7.522;2023-03-20T17:53:53;9.90;95.40
58638;DHT22;54976;51.510;7.522;2023-03-20T17:56:56;10.00;94.00
58638;DHT22;54976;51.510;7.522;2023-03-20T17:59:57;9.90;94.50
58638;DHT22;54976;51.510;7.522;2023-03-20T18:02:58;9.90;95.00
58638;DHT22;54976;51.510;7.522;2023-03-20T18:05:58;9.90;95.30
58638;DHT22;54976;51.510;7.522;2023-03-20T18:08:59;9.90;95.80
58638;DHT22;54976;51.510;7.522;2023-03-20T18:12:00;9.90;96.10
58638;DHT22;54976;51.510;7.522;2023-03-20T18:15:01;10.00;96.10
58638;DHT22;54976;51.510;7.522;2023-03-20T18:18:01;9.80;97.00
58638;DHT22;54976;51.510;7.522;2023-03-20T18:21:02;9.60;98.50
58638;DHT22;54976;51.510;7.522;2023-03-20T18:24:02;9.50;99.30
58638;DHT22;54976;51.510;7.522;2023-03-20T18:27:04;9.40;99.90
58638;DHT22;54976;51.510;7.522;2023-03-20T18:30:09;9.40;99.90
58638;DHT22;54976;51.510;7.522;2023-03-20T18:33:13;9.30;99.90
58638;DHT22;54976;51.510;7.522;2023-03-20T18:36:14;9.20;99.90
58638;DHT22;54976;51.510;7.522;2023-03-20T18:39:18;9.30;99.90
58638;DHT22;54976;51.510;7.522;2023-03-20T18:42:19;9.50;99.90
58638;DHT22;54976;51.510;7.522;2023-03-20T18:45:20;9.40;99.90
58638;DHT22;54976;51.510;7.522;2023-03-20T18:48:21;9.40;99.90
58638;DHT22;54976;51.510;7.522;2023-03-20T18:51:21;9.40;99.90
58638;DHT22;54976;51.510;7.522;2023-03-20T18:54:22;9.40;99.90
58638;DHT22;54976;51.510;7.522;2023-03-20T18:57:22;9.40;99.90
58638;DHT22;54976;51.510;7.522;2023-03-20T19:00:28;9.50;99.90
58638;DHT22;54976;51.510;7.522;2023-03-20T19:03:30;9.50;99.70
58638;DHT22;54976;51.510;7.522;2023-03-20T19:06:37;9.60;99.60
58638;DHT22;54976;51.510;7.522;2023-03-20T19:09:37;9.60;98.70
58638;DHT22;54976;51.510;7.522;2023-03-20T19:12:39;9.70;97.00
58638;DHT22;54976;51.510;7.522;2023-03-20T19:15:40;9.80;96.70
58638;DHT22;54976;51.510;7.522;2023-03-20T19:18:40;9.80;96.30
58638;DHT22;54976;51.510;7.522;2023-03-20T19:21:41;9.80;96.90
58638;DHT22;54976;51.510;7.522;2023-03-20T19:24:41;9.90;95.30
58638;DHT22;54976;51.510;7.522;2023-03-20T19:27:42;9.90;95.60
58638;DHT22;54976;51.510;7.522;2023-03-20T19:30:42;10.00;95.10
58638;DHT22;54976;51.510;7.522;2023-03-20T19:33:43;9.90;95.70
58638;DHT22;54976;51.510;7.522;2023-03-20T19:36:43;9.90;95.20
58638;DHT22;54976;51.510;7.522;2023-03-20T19:39:47;10.00;93.80
58638;DHT22;54976;51.510;7.522;2023-03-20T19:42:48;10.00;94.00
58638;DHT22;54976;51.510;7.522;2023-03-20T19:45:49;10.10;94.10
58638;DHT22;54976;51.510;7.522;2023-03-20T19:48:53;10.20;93.50
58638;DHT22;54976;51.510;7.522;2023-03-20T19:51:53;10.20;93.40
58638;DHT22;54976;51.510;7.522;2023-03-20T19:54:54;10.30;93.30
58638;DHT22;54976;51.510;7.522;2023-03-20T19:57:55;10.20;93.30
58638;DHT22;54976;51.510;7.522;2023-03-20T20:00:57;10.20;94.30
58638;DHT22;54976;51.510;7.522;2023-03-20T20:03:57;10.20;93.10
58638;DHT22;54976;51.510;7.522;2023-03-20T20:06:58;10.20;94.20
58638;DHT22;54976;51.510;7.522;2023-03-20T20:09:58;10.30;93.30
58638;DHT22;54976;51.510;7.522;2023-03-20T20:12:59;10.20;94.00
58638;DHT22;54976;51.510;7.522;2023-03-20T20:16:00;10.20;94.00
58638;DHT22;54976;51.510;7.522;2023-03-20T20:19:00;10.20;93.50
58638;DHT22;54976;51.510;7.522;2023-03-20T20:22:01;10.30;93.90
58638;DHT22;54976;51.510;7.522;2023-03-20T20:25:02;10.30;93.50
58638;DHT22;54976;51.510;7.522;2023-03-20T20:28:02;10.30;93.80
58638;DHT22;54976;51.510;7.522;2023-03-20T20:31:03;10.30;93.90
58638;DHT22;54976;51.510;7.522;2023-03-20T20:34:04;10.30;93.90
58638;DHT22;54976;51.510;7.522;2023-03-20T20:37:04;10.30;94.50
58638;DHT22;54976;51.510;7.522;2023-03-20T20:40:05;10.30;94.30
58638;DHT22;54976;51.510;7.522;2023-03-20T20:43:06;10.30;94.20
58638;DHT22;54976;51.510;7.522;2023-03-20T20:46:06;10.30;94.30
58638;DHT22;54976;51.510;7.522;2023-03-20T20:49:07;10.40;93.60
58638;DHT22;54976;51.510;7.522;2023-03-20T20:52:10;10.40;94.30
58638;DHT22;54976;51.510;7.522;2023-03-20T20:55:11;10.30;94.20
58638;DHT22;54976;51.510;7.522;2023-03-20T20:58:12;10.30;94.10
58638;DHT22;54976;51.510;7.522;2023-03-20T21:01:13;10.40;93.80
58638;DHT22;54976;51.510;7.522;2023-03-20T21:04:13;10.40;94.10
58638;DHT22;54976;51.510;7.522;2023-03-20T21:07:14;10.40;93.80
58638;DHT22;54976;51.510;7.522;2023-03-20T21:10:16;10.50;93.10
58638;DHT22;54976;51.510;7.522;2023-03-20T21:13:17;10.40;93.30
58638;DHT22;54976;51.510;7.522;2023-03-20T21:16:17;10.50;93.10
58638;DHT22;54976;51.510;7.522;2023-03-20T21:19:18;10.50;93.20
58638;DHT22;54976;51.510;7.522;2023-03-20T21:22:18;10.50;93.30
58638;DHT22;54976;51.510;7.522;2023-03-20T21:25:21;10.60;92.80
58638;DHT22;54976;51.510;7.522;2023-03-20T21:28:22;10.60;92.60
58638;DHT22;54976;51.510;7.522;2023-03-20T21:31:23;10.60;92.10